sensor_id;sensor_type;location;lat;lon;timestamp;pressure;altitude;pressure_sealevel;temperature;humidity
8051;BME280;4068;42.158;24.732;2022-12-10T00:01:57;99266.69;;;8.19;100.00
8051;BME280;4068;42.158;24.732;2022-12-10T00:04:23;99258.56;;;8.22;100.00
8051;BME280;4068;42.158;24.732;2022-12-10T00:06:48;99255.16;;;8.20;100.00
8051;BME280;4068;42.158;24.732;2022-12-10T00:09:16;99225.81;;;8.01;100.00
8051;BME280;4068;42.158;24.732;2022-12-10T00:11:42;99251.88;;;8.05;100.00
8051;BME280;4068;42.158;24.732;2022-12-10T00:14:08;99249.00;;;8.08;100.00
8051;BME280;4068;42.158;24.732;2022-12-10T00:16:34;99245.63;;;8.06;100.00
8051;BME280;4068;42.158;24.732;2022-12-10T00:19:00;99243.25;;;8.15;100.00
8051;BME280;4068;42.158;24.732;2022-12-10T00:21:28;99235.97;;;8.18;100.00
8051;BME280;4068;42.158;24.732;2022-12-10T00:23:54;99249.06;;;8.20;100.00
8051;BME280;4068;42.158;24.732;2022-12-10T00:26:32;99227.75;;;8.10;100.00
8051;BME280;4068;42.158;24.732;2022-12-10T00:29:00;99251.47;;;8.23;100.00
8051;BME280;4068;42.158;24.732;2022-12-10T00:31:28;99224.19;;;8.11;100.00
8051;BME280;4068;42.158;24.732;2022-12-10T00:33:55;99238.84;;;8.26;100.00
8051;BME280;4068;42.158;24.732;2022-12-10T00:36:24;99250.88;;;8.30;100.00
8051;BME280;4068;42.158;24.732;2022-12-10T00:38:50;99253.81;;;8.15;100.00
8051;BME280;4068;42.158;24.732;2022-12-10T00:41:16;99255.00;;;8.10;100.00
8051;BME280;4068;42.158;24.732;2022-12-10T00:43:42;99262.84;;;8.23;100.00
8051;BME280;4068;42.158;24.732;2022-12-10T00:46:08;99271.16;;;8.30;100.00
8051;BME280;4068;42.158;24.732;2022-12-10T00:48:34;99248.22;;;8.30;100.00
8051;BME280;4068;42.158;24.732;2022-12-10T00:51:21;99252.69;;;8.30;100.00
8051;BME280;4068;42.158;24.732;2022-12-10T00:53:48;99242.47;;;8.25;100.00
8051;BME280;4068;42.158;24.732;2022-12-10T00:56:18;99256.16;;;8.30;100.00
8051;BME280;4068;42.158;24.732;2022-12-10T00:58:43;99257.81;;;8.20;100.00
8051;BME280;4068;42.158;24.732;2022-12-10T01:01:13;99250.25;;;8.16;100.00
8051;BME280;4068;42.158;24.732;2022-12-10T01:03:40;99227.66;;;8.11;100.00
8051;BME280;4068;42.158;24.732;2022-12-10T01:08:34;99244.00;;;8.17;100.00
8051;BME280;4068;42.158;24.732;2022-12-10T01:11:00;99224.34;;;7.97;100.00
8051;BME280;4068;42.158;24.732;2022-12-10T01:13:25;99207.44;;;7.99;100.00
8051;BME280;4068;42.158;24.732;2022-12-10T01:15:50;99199.47;;;7.88;100.00
8051;BME280;4068;42.158;24.732;2022-12-10T01:18:16;99233.13;;;7.97;100.00
8051;BME280;4068;42.158;24.732;2022-12-10T01:20:41;99194.72;;;7.69;100.00
8051;BME280;4068;42.158;24.732;2022-12-10T01:23:07;99222.69;;;7.95;100.00
8051;BME280;4068;42.158;24.732;2022-12-10T01:25:32;99217.63;;;7.92;100.00
8051;BME280;4068;42.158;24.732;2022-12-10T01:27:58;99215.06;;;7.80;100.00
8051;BME280;4068;42.158;24.732;2022-12-10T01:30:23;99218.66;;;7.78;100.00
8051;BME280;4068;42.158;24.732;2022-12-10T01:32:48;99211.72;;;7.89;100.00
8051;BME280;4068;42.158;24.732;2022-12-10T01:35:14;99201.56;;;7.95;100.00
8051;BME280;4068;42.158;24.732;2022-12-10T01:37:39;99209.59;;;7.94;100.00
8051;BME280;4068;42.158;24.732;2022-12-10T01:40:05;99204.22;;;8.07;100.00
8051;BME280;4068;42.158;24.732;2022-12-10T01:42:31;99206.72;;;7.97;100.00
8051;BME280;4068;42.158;24.732;2022-12-10T01:44:59;99200.13;;;8.03;100.00
8051;BME280;4068;42.158;24.732;2022-12-10T01:47:25;99179.00;;;8.03;100.00
8051;BME280;4068;42.158;24.732;2022-12-10T01:49:50;99177.16;;;7.92;100.00
8051;BME280;4068;42.158;24.732;2022-12-10T01:52:16;99188.94;;;7.99;100.00
8051;BME280;4068;42.158;24.732;2022-12-10T01:54:44;99186.34;;;8.10;100.00
8051;BME280;4068;42.158;24.732;2022-12-10T01:59:35;99176.97;;;8.06;100.00
8051;BME280;4068;42.158;24.732;2022-12-10T02:02:36;99172.91;;;8.13;100.00
8051;BME280;4068;42.158;24.732;2022-12-10T02:13:19;99170.84;;;8.06;100.00
8051;BME280;4068;42.158;24.732;2022-12-10T02:16:26;99165.44;;;8.07;100.00
8051;BME280;4068;42.158;24.732;2022-12-10T02:18:59;99158.44;;;7.95;100.00
8051;BME280;4068;42.158;24.732;2022-12-10T02:21:30;99170.31;;;7.89;100.00
8051;BME280;4068;42.158;24.732;2022-12-10T02:24:00;99179.22;;;7.88;100.00
8051;BME280;4068;42.158;24.732;2022-12-10T02:26:57;99182.47;;;8.03;100.00
8051;BME280;4068;42.158;24.732;2022-12-10T02:29:26;99184.44;;;8.12;100.00
8051;BME280;4068;42.158;24.732;2022-12-10T02:31:59;99172.69;;;8.17;100.00
8051;BME280;4068;42.158;24.732;2022-12-10T02:34:27;99184.22;;;8.27;100.00
8051;BME280;4068;42.158;24.732;2022-12-10T02:36:57;99179.19;;;8.24;100.00
8051;BME280;4068;42.158;24.732;2022-12-10T02:39:28;99185.38;;;8.11;100.00
8051;BME280;4068;42.158;24.732;2022-12-10T02:41:58;99169.91;;;8.07;100.00
8051;BME280;4068;42.158;24.732;2022-12-10T02:44:26;99181.81;;;8.24;100.00
8051;BME280;4068;42.158;24.732;2022-12-10T02:46:55;99176.53;;;8.12;100.00
8051;BME280;4068;42.158;24.732;2022-12-10T02:49:23;99156.69;;;8.07;100.00
8051;BME280;4068;42.158;24.732;2022-12-10T02:51:50;99188.88;;;8.23;100.00
8051;BME280;4068;42.158;24.732;2022-12-10T02:54:44;99184.22;;;8.27;100.00
8051;BME280;4068;42.158;24.732;2022-12-10T03:00:13;99171.22;;;8.12;100.00
8051;BME280;4068;42.158;24.732;2022-12-10T03:05:19;99159.94;;;8.22;100.00
8051;BME280;4068;42.158;24.732;2022-12-10T03:07:58;99160.19;;;8.19;100.00
8051;BME280;4068;42.158;24.732;2022-12-10T03:10:34;99148.13;;;7.92;100.00
8051;BME280;4068;42.158;24.732;2022-12-10T03:13:12;99157.28;;;8.10;100.00
8051;BME280;4068;42.158;24.732;2022-12-10T03:15:40;99165.94;;;8.12;100.00
8051;BME280;4068;42.158;24.732;2022-12-10T03:18:08;99157.66;;;8.17;100.00
8051;BME280;4068;42.158;24.732;2022-12-10T03:20:42;99159.81;;;8.12;100.00
8051;BME280;4068;42.158;24.732;2022-12-10T03:23:14;99158.25;;;8.09;100.00
8051;BME280;4068;42.158;24.732;2022-12-10T03:25:41;99144.28;;;7.96;100.00
8051;BME280;4068;42.158;24.732;2022-12-10T03:28:07;99127.47;;;7.86;100.00
8051;BME280;4068;42.158;24.732;2022-12-10T03:30:36;99140.72;;;7.97;100.00
8051;BME280;4068;42.158;24.732;2022-12-10T03:33:04;99133.72;;;7.96;100.00
8051;BME280;4068;42.158;24.732;2022-12-10T03:35:30;99133.03;;;8.05;100.00
8051;BME280;4068;42.158;24.732;2022-12-10T03:37:56;99115.69;;;7.78;100.00
8051;BME280;4068;42.158;24.732;2022-12-10T03:40:23;99147.91;;;8.06;100.00
8051;BME280;4068;42.158;24.732;2022-12-10T03:42:50;99137.50;;;8.16;100.00
8051;BME280;4068;42.158;24.732;2022-12-10T03:45:15;99136.03;;;8.12;100.00
8051;BME280;4068;42.158;24.732;2022-12-10T03:47:41;99095.91;;;7.84;100.00
8051;BME280;4068;42.158;24.732;2022-12-10T03:50:07;99095.06;;;7.84;100.00
8051;BME280;4068;42.158;24.732;2022-12-10T03:52:33;99117.41;;;8.02;100.00
8051;BME280;4068;42.158;24.732;2022-12-10T03:54:59;99123.56;;;8.03;100.00
8051;BME280;4068;42.158;24.732;2022-12-10T03:57:24;99109.75;;;8.10;100.00
8051;BME280;4068;42.158;24.732;2022-12-10T03:59:50;99108.44;;;8.16;100.00
8051;BME280;4068;42.158;24.732;2022-12-10T04:02:15;99125.94;;;7.94;100.00
8051;BME280;4068;42.158;24.732;2022-12-10T04:04:41;99129.63;;;7.92;100.00
8051;BME280;4068;42.158;24.732;2022-12-10T04:07:06;99132.91;;;7.95;100.00
8051;BME280;4068;42.158;24.732;2022-12-10T04:09:32;99135.31;;;7.99;100.00
8051;BME280;4068;42.158;24.732;2022-12-10T04:11:58;99139.50;;;7.90;100.00
8051;BME280;4068;42.158;24.732;2022-12-10T04:14:25;99129.63;;;7.81;100.00
8051;BME280;4068;42.158;24.732;2022-12-10T04:17:09;99123.94;;;7.63;100.00
8051;BME280;4068;42.158;24.732;2022-12-10T04:19:35;99131.13;;;7.60;100.00
8051;BME280;4068;42.158;24.732;2022-12-10T04:22:01;99112.88;;;7.57;100.00
8051;BME280;4068;42.158;24.732;2022-12-10T04:24:44;99121.03;;;7.54;100.00
8051;BME280;4068;42.158;24.732;2022-12-10T04:27:31;99120.84;;;7.69;100.00
8051;BME280;4068;42.158;24.732;2022-12-10T04:29:58;99131.75;;;7.64;100.00
8051;BME280;4068;42.158;24.732;2022-12-10T04:32:25;99127.47;;;7.86;100.00
8051;BME280;4068;42.158;24.732;2022-12-10T04:34:51;99131.94;;;7.85;100.00
8051;BME280;4068;42.158;24.732;2022-12-10T04:37:17;99129.16;;;7.87;100.00
8051;BME280;4068;42.158;24.732;2022-12-10T04:39:43;99124.81;;;7.74;100.00
8051;BME280;4068;42.158;24.732;2022-12-10T04:42:09;99127.44;;;7.74;100.00
8051;BME280;4068;42.158;24.732;2022-12-10T04:44:34;99136.03;;;7.65;100.00
8051;BME280;4068;42.158;24.732;2022-12-10T04:47:00;99129.72;;;7.79;100.00
8051;BME280;4068;42.158;24.732;2022-12-10T04:49:26;99130.59;;;7.80;100.00
8051;BME280;4068;42.158;24.732;2022-12-10T04:51:52;99125.16;;;7.70;100.00
8051;BME280;4068;42.158;24.732;2022-12-10T04:54:18;99140.88;;;7.71;100.00
8051;BME280;4068;42.158;24.732;2022-12-10T04:56:45;99111.09;;;7.69;100.00
8051;BME280;4068;42.158;24.732;2022-12-10T04:59:11;99109.69;;;7.76;100.00
8051;BME280;4068;42.158;24.732;2022-12-10T05:01:37;99113.66;;;7.82;100.00
8051;BME280;4068;42.158;24.732;2022-12-10T05:04:05;99099.13;;;7.76;100.00
8051;BME280;4068;42.158;24.732;2022-12-10T05:06:32;99112.72;;;7.83;100.00
8051;BME280;4068;42.158;24.732;2022-12-10T05:08:58;99086.88;;;7.64;100.00
8051;BME280;4068;42.158;24.732;2022-12-10T05:11:27;99121.38;;;7.97;100.00
8051;BME280;4068;42.158;24.732;2022-12-10T05:13:53;99118.66;;;8.09;100.00
8051;BME280;4068;42.158;24.732;2022-12-10T05:16:20;99127.88;;;8.15;100.00
8051;BME280;4068;42.158;24.732;2022-12-10T05:18:46;99112.50;;;8.09;100.00
8051;BME280;4068;42.158;24.732;2022-12-10T05:21:14;99116.22;;;8.06;100.00
8051;BME280;4068;42.158;24.732;2022-12-10T05:23:45;99129.81;;;8.13;100.00
8051;BME280;4068;42.158;24.732;2022-12-10T05:26:19;99126.56;;;8.09;100.00
8051;BME280;4068;42.158;24.732;2022-12-10T05:28:51;99121.97;;;7.89;100.00
8051;BME280;4068;42.158;24.732;2022-12-10T05:31:27;99125.53;;;7.88;100.00
8051;BME280;4068;42.158;24.732;2022-12-10T05:33:53;99096.47;;;7.76;100.00
8051;BME280;4068;42.158;24.732;2022-12-10T05:36:22;99134.69;;;7.95;100.00
8051;BME280;4068;42.158;24.732;2022-12-10T05:38:48;99133.72;;;7.96;100.00
8051;BME280;4068;42.158;24.732;2022-12-10T05:41:19;99122.44;;;7.83;100.00
8051;BME280;4068;42.158;24.732;2022-12-10T05:43:46;99135.28;;;7.87;100.00
8051;BME280;4068;42.158;24.732;2022-12-10T05:46:18;99095.66;;;7.76;100.00
8051;BME280;4068;42.158;24.732;2022-12-10T05:48:43;99120.06;;;8.02;100.00
8051;BME280;4068;42.158;24.732;2022-12-10T05:51:13;99112.34;;;7.88;100.00
8051;BME280;4068;42.158;24.732;2022-12-10T05:53:39;99103.84;;;7.84;100.00
8051;BME280;4068;42.158;24.732;2022-12-10T05:56:07;99116.91;;;7.86;100.00
8051;BME280;4068;42.158;24.732;2022-12-10T05:58:34;99110.44;;;7.90;100.00
8051;BME280;4068;42.158;24.732;2022-12-10T06:01:00;99085.69;;;7.68;100.00
8051;BME280;4068;42.158;24.732;2022-12-10T06:03:30;99103.72;;;7.86;100.00
8051;BME280;4068;42.158;24.732;2022-12-10T06:05:56;99074.06;;;7.82;100.00
8051;BME280;4068;42.158;24.732;2022-12-10T06:08:22;99117.56;;;8.12;100.00
8051;BME280;4068;42.158;24.732;2022-12-10T06:10:48;99106.84;;;8.02;100.00
8051;BME280;4068;42.158;24.732;2022-12-10T06:13:13;99112.75;;;8.06;100.00
8051;BME280;4068;42.158;24.732;2022-12-10T06:15:41;99105.66;;;8.06;100.00
8051;BME280;4068;42.158;24.732;2022-12-10T06:18:06;99109.03;;;7.97;100.00
8051;BME280;4068;42.158;24.732;2022-12-10T06:20:32;99091.97;;;8.01;100.00
8051;BME280;4068;42.158;24.732;2022-12-10T06:22:57;99085.25;;;7.97;100.00
8051;BME280;4068;42.158;24.732;2022-12-10T06:25:23;99099.78;;;8.03;100.00
8051;BME280;4068;42.158;24.732;2022-12-10T06:27:49;99103.63;;;8.10;100.00
8051;BME280;4068;42.158;24.732;2022-12-10T06:30:14;99088.38;;;8.02;100.00
8051;BME280;4068;42.158;24.732;2022-12-10T06:32:40;99107.13;;;8.22;100.00
8051;BME280;4068;42.158;24.732;2022-12-10T06:35:08;99101.00;;;8.33;100.00
8051;BME280;4068;42.158;24.732;2022-12-10T06:37:34;99072.19;;;8.18;100.00
8051;BME280;4068;42.158;24.732;2022-12-10T06:39:59;99107.84;;;8.58;100.00
8051;BME280;4068;42.158;24.732;2022-12-10T06:42:25;99102.00;;;8.54;100.00
8051;BME280;4068;42.158;24.732;2022-12-10T06:44:51;99110.41;;;8.59;100.00
8051;BME280;4068;42.158;24.732;2022-12-10T06:47:16;99118.78;;;8.64;100.00
8051;BME280;4068;42.158;24.732;2022-12-10T06:49:41;99115.91;;;8.56;100.00
8051;BME280;4068;42.158;24.732;2022-12-10T06:52:07;99115.31;;;8.64;100.00
8051;BME280;4068;42.158;24.732;2022-12-10T06:54:32;99118.91;;;8.74;100.00
8051;BME280;4068;42.158;24.732;2022-12-10T06:56:58;99117.66;;;9.01;100.00
8051;BME280;4068;42.158;24.732;2022-12-10T06:59:23;99120.75;;;9.06;100.00
8051;BME280;4068;42.158;24.732;2022-12-10T07:01:49;99123.22;;;8.87;100.00
8051;BME280;4068;42.158;24.732;2022-12-10T07:04:14;99119.63;;;8.76;100.00
8051;BME280;4068;42.158;24.732;2022-12-10T07:06:42;99120.84;;;8.84;100.00
8051;BME280;4068;42.158;24.732;2022-12-10T07:09:08;99126.78;;;9.08;100.00
8051;BME280;4068;42.158;24.732;2022-12-10T07:11:35;99137.78;;;9.25;100.00
8051;BME280;4068;42.158;24.732;2022-12-10T07:14:01;99131.28;;;9.29;100.00
8051;BME280;4068;42.158;24.732;2022-12-10T07:16:29;99114.97;;;9.24;100.00
8051;BME280;4068;42.158;24.732;2022-12-10T07:18:56;99112.09;;;9.15;100.00
8051;BME280;4068;42.158;24.732;2022-12-10T07:21:26;99119.69;;;9.41;100.00
8051;BME280;4068;42.158;24.732;2022-12-10T07:23:54;99116.13;;;9.63;100.00
8051;BME280;4068;42.158;24.732;2022-12-10T07:26:21;99104.06;;;9.71;100.00
8051;BME280;4068;42.158;24.732;2022-12-10T07:28:47;99096.03;;;9.61;100.00
8051;BME280;4068;42.158;24.732;2022-12-10T07:31:12;99091.56;;;9.61;100.00
8051;BME280;4068;42.158;24.732;2022-12-10T07:33:38;99104.41;;;9.66;100.00
8051;BME280;4068;42.158;24.732;2022-12-10T07:36:08;99102.38;;;9.70;100.00
8051;BME280;4068;42.158;24.732;2022-12-10T07:38:34;99079.84;;;9.22;100.00
8051;BME280;4068;42.158;24.732;2022-12-10T07:41:08;99105.94;;;9.47;100.00
8051;BME280;4068;42.158;24.732;2022-12-10T07:43:35;99102.34;;;9.48;100.00
8051;BME280;4068;42.158;24.732;2022-12-10T07:46:13;99111.00;;;9.50;100.00
8051;BME280;4068;42.158;24.732;2022-12-10T07:48:40;99113.97;;;9.57;100.00
8051;BME280;4068;42.158;24.732;2022-12-10T07:51:06;99080.47;;;9.67;100.00
8051;BME280;4068;42.158;24.732;2022-12-10T07:53:33;99110.69;;;9.86;100.00
8051;BME280;4068;42.158;24.732;2022-12-10T07:55:59;99111.00;;;9.72;100.00
8051;BME280;4068;42.158;24.732;2022-12-10T07:58:24;99106.38;;;9.64;100.00
8051;BME280;4068;42.158;24.732;2022-12-10T08:00:50;99105.91;;;9.59;100.00
8051;BME280;4068;42.158;24.732;2022-12-10T08:03:15;99086.06;;;9.32;100.00
8051;BME280;4068;42.158;24.732;2022-12-10T08:05:41;99116.00;;;9.65;100.00
8051;BME280;4068;42.158;24.732;2022-12-10T08:08:06;99119.97;;;9.80;100.00
8051;BME280;4068;42.158;24.732;2022-12-10T08:10:35;99117.53;;;9.46;100.00
8051;BME280;4068;42.158;24.732;2022-12-10T08:13:02;99094.09;;;9.30;100.00
8051;BME280;4068;42.158;24.732;2022-12-10T08:15:27;99085.06;;;9.33;100.00
8051;BME280;4068;42.158;24.732;2022-12-10T08:17:54;99093.56;;;9.48;100.00
8051;BME280;4068;42.158;24.732;2022-12-10T08:20:19;99110.03;;;9.52;100.00
8051;BME280;4068;42.158;24.732;2022-12-10T08:22:45;99076.84;;;9.26;100.00
8051;BME280;4068;42.158;24.732;2022-12-10T08:25:10;99108.78;;;9.35;100.00
8051;BME280;4068;42.158;24.732;2022-12-10T08:27:36;99097.94;;;9.38;100.00
8051;BME280;4068;42.158;24.732;2022-12-10T08:30:01;99106.28;;;9.54;100.00
8051;BME280;4068;42.158;24.732;2022-12-10T08:32:27;99099.19;;;9.76;100.00
8051;BME280;4068;42.158;24.732;2022-12-10T08:34:52;99063.94;;;9.75;100.00
8051;BME280;4068;42.158;24.732;2022-12-10T08:37:17;99072.63;;;10.08;100.00
8051;BME280;4068;42.158;24.732;2022-12-10T08:39:43;99074.88;;;10.13;100.00
8051;BME280;4068;42.158;24.732;2022-12-10T08:42:08;99044.56;;;10.06;100.00
8051;BME280;4068;42.158;24.732;2022-12-10T08:44:34;99074.50;;;10.27;100.00
8051;BME280;4068;42.158;24.732;2022-12-10T08:46:59;99086.47;;;10.22;100.00
8051;BME280;4068;42.158;24.732;2022-12-10T08:49:25;99060.50;;;9.84;100.00
8051;BME280;4068;42.158;24.732;2022-12-10T08:51:50;99076.50;;;10.04;100.00
8051;BME280;4068;42.158;24.732;2022-12-10T08:54:15;99051.16;;;10.11;100.00
8051;BME280;4068;42.158;24.732;2022-12-10T08:56:41;99066.78;;;10.35;100.00
8051;BME280;4068;42.158;24.732;2022-12-10T08:59:07;99072.28;;;10.53;100.00
8051;BME280;4068;42.158;24.732;2022-12-10T09:01:32;99078.38;;;10.95;100.00
8051;BME280;4068;42.158;24.732;2022-12-10T09:03:58;99083.81;;;11.03;100.00
8051;BME280;4068;42.158;24.732;2022-12-10T09:06:24;99074.19;;;11.31;100.00
8051;BME280;4068;42.158;24.732;2022-12-10T09:08:50;99060.94;;;11.51;100.00
8051;BME280;4068;42.158;24.732;2022-12-10T09:11:22;99059.22;;;11.79;100.00
8051;BME280;4068;42.158;24.732;2022-12-10T09:13:48;99059.19;;;11.99;100.00
8051;BME280;4068;42.158;24.732;2022-12-10T09:16:15;99055.53;;;12.00;100.00
8051;BME280;4068;42.158;24.732;2022-12-10T09:18:40;99046.78;;;12.27;100.00
8051;BME280;4068;42.158;24.732;2022-12-10T09:21:07;99037.88;;;12.46;100.00
8051;BME280;4068;42.158;24.732;2022-12-10T09:23:33;99028.78;;;12.67;100.00
8051;BME280;4068;42.158;24.732;2022-12-10T09:25:59;99022.94;;;12.81;100.00
8051;BME280;4068;42.158;24.732;2022-12-10T09:28:25;99013.25;;;12.90;100.00
8051;BME280;4068;42.158;24.732;2022-12-10T09:30:58;99022.38;;;12.87;100.00
8051;BME280;4068;42.158;24.732;2022-12-10T09:33:24;99008.47;;;12.75;100.00
8051;BME280;4068;42.158;24.732;2022-12-10T09:35:49;99005.78;;;12.75;100.00
8051;BME280;4068;42.158;24.732;2022-12-10T09:38:15;99000.34;;;12.49;100.00
8051;BME280;4068;42.158;24.732;2022-12-10T09:40:49;99000.50;;;12.48;100.00
8051;BME280;4068;42.158;24.732;2022-12-10T09:46:06;98989.34;;;12.62;100.00
8051;BME280;4068;42.158;24.732;2022-12-10T09:51:22;98982.84;;;12.29;100.00
8051;BME280;4068;42.158;24.732;2022-12-10T09:53:50;98965.78;;;12.49;100.00
8051;BME280;4068;42.158;24.732;2022-12-10T09:56:34;98948.19;;;12.20;100.00
8051;BME280;4068;42.158;24.732;2022-12-10T09:59:06;98966.78;;;12.20;100.00
8051;BME280;4068;42.158;24.732;2022-12-10T10:01:37;98963.06;;;12.31;100.00
8051;BME280;4068;42.158;24.732;2022-12-10T10:04:03;98968.34;;;12.41;100.00
8051;BME280;4068;42.158;24.732;2022-12-10T10:06:29;98952.06;;;12.44;100.00
8051;BME280;4068;42.158;24.732;2022-12-10T10:08:57;98949.97;;;12.48;100.00
8051;BME280;4068;42.158;24.732;2022-12-10T10:11:29;98948.63;;;12.62;100.00
8051;BME280;4068;42.158;24.732;2022-12-10T10:13:58;98941.56;;;12.88;100.00
8051;BME280;4068;42.158;24.732;2022-12-10T10:19:15;98946.41;;;12.93;100.00
8051;BME280;4068;42.158;24.732;2022-12-10T10:21:48;98935.38;;;12.52;100.00
8051;BME280;4068;42.158;24.732;2022-12-10T10:24:20;98932.56;;;12.53;100.00
8051;BME280;4068;42.158;24.732;2022-12-10T10:26:46;98925.94;;;12.39;100.00
8051;BME280;4068;42.158;24.732;2022-12-10T10:29:16;98935.06;;;12.37;100.00
8051;BME280;4068;42.158;24.732;2022-12-10T10:31:43;98895.06;;;12.11;100.00
8051;BME280;4068;42.158;24.732;2022-12-10T10:34:16;98920.06;;;12.18;100.00
8051;BME280;4068;42.158;24.732;2022-12-10T10:36:43;98921.91;;;11.80;100.00
8051;BME280;4068;42.158;24.732;2022-12-10T10:41:42;98889.47;;;11.48;100.00
8051;BME280;4068;42.158;24.732;2022-12-10T10:44:22;98906.84;;;11.70;100.00
8051;BME280;4068;42.158;24.732;2022-12-10T10:46:53;98899.97;;;11.78;100.00
8051;BME280;4068;42.158;24.732;2022-12-10T10:51:53;98853.00;;;11.50;100.00
8051;BME280;4068;42.158;24.732;2022-12-10T10:54:40;98845.66;;;11.62;100.00
8051;BME280;4068;42.158;24.732;2022-12-10T10:57:12;98837.63;;;11.44;100.00
8051;BME280;4068;42.158;24.732;2022-12-10T10:59:40;98869.59;;;11.52;100.00
8051;BME280;4068;42.158;24.732;2022-12-10T11:02:38;98881.50;;;11.48;100.00
8051;BME280;4068;42.158;24.732;2022-12-10T11:05:14;98841.72;;;11.38;100.00
8051;BME280;4068;42.158;24.732;2022-12-10T11:07:41;98882.97;;;11.70;100.00
8051;BME280;4068;42.158;24.732;2022-12-10T11:10:27;98858.34;;;11.68;100.00
8051;BME280;4068;42.158;24.732;2022-12-10T11:12:57;98865.09;;;11.63;100.00
8051;BME280;4068;42.158;24.732;2022-12-10T11:15:34;98843.31;;;11.59;100.00
8051;BME280;4068;42.158;24.732;2022-12-10T11:18:01;98838.72;;;11.51;100.00
8051;BME280;4068;42.158;24.732;2022-12-10T11:20:33;98839.13;;;11.56;100.00
8051;BME280;4068;42.158;24.732;2022-12-10T11:23:01;98841.72;;;11.38;100.00
8051;BME280;4068;42.158;24.732;2022-12-10T11:25:50;98843.78;;;11.45;100.00
8051;BME280;4068;42.158;24.732;2022-12-10T11:28:43;98840.13;;;11.46;100.00
8051;BME280;4068;42.158;24.732;2022-12-10T11:34:17;98831.41;;;11.63;100.00
8051;BME280;4068;42.158;24.732;2022-12-10T11:37:01;98810.84;;;11.65;100.00
8051;BME280;4068;42.158;24.732;2022-12-10T11:42:29;98793.47;;;11.99;100.00
8051;BME280;4068;42.158;24.732;2022-12-10T11:48:08;98797.19;;;12.24;100.00
8051;BME280;4068;42.158;24.732;2022-12-10T11:53:24;98760.13;;;12.40;100.00
8051;BME280;4068;42.158;24.732;2022-12-10T12:01:49;98771.94;;;12.64;100.00
8051;BME280;4068;42.158;24.732;2022-12-10T12:06:34;98772.28;;;12.43;100.00
8051;BME280;4068;42.158;24.732;2022-12-10T12:14:36;98756.75;;;12.38;100.00
8051;BME280;4068;42.158;24.732;2022-12-10T12:17:27;98746.63;;;12.60;100.00
8051;BME280;4068;42.158;24.732;2022-12-10T12:20:05;98749.19;;;12.70;100.00
8051;BME280;4068;42.158;24.732;2022-12-10T12:22:43;98731.53;;;12.95;100.00
8051;BME280;4068;42.158;24.732;2022-12-10T12:25:40;98733.69;;;13.00;100.00
8051;BME280;4068;42.158;24.732;2022-12-10T12:30:47;98745.47;;;13.23;100.00
8051;BME280;4068;42.158;24.732;2022-12-10T12:33:32;98752.56;;;13.41;100.00
8051;BME280;4068;42.158;24.732;2022-12-10T12:36:10;98733.56;;;13.36;100.00
8051;BME280;4068;42.158;24.732;2022-12-10T12:44:26;98744.72;;;13.39;100.00
8051;BME280;4068;42.158;24.732;2022-12-10T12:47:03;98730.47;;;13.22;100.00
8051;BME280;4068;42.158;24.732;2022-12-10T12:49:36;98726.28;;;13.11;100.00
8051;BME280;4068;42.158;24.732;2022-12-10T12:54:36;98727.50;;;12.91;100.00
8051;BME280;4068;42.158;24.732;2022-12-10T12:57:10;98710.59;;;12.66;100.00
8051;BME280;4068;42.158;24.732;2022-12-10T13:04:51;98735.59;;;12.81;100.00
8051;BME280;4068;42.158;24.732;2022-12-10T13:09:47;98716.53;;;12.86;100.00
8051;BME280;4068;42.158;24.732;2022-12-10T13:12:25;98723.25;;;12.72;100.00
8051;BME280;4068;42.158;24.732;2022-12-10T13:15:03;98723.56;;;12.69;100.00
8051;BME280;4068;42.158;24.732;2022-12-10T13:18:01;98721.41;;;12.72;100.00
8051;BME280;4068;42.158;24.732;2022-12-10T13:23:03;98703.97;;;12.70;100.00
8051;BME280;4068;42.158;24.732;2022-12-10T13:25:41;98698.06;;;12.58;100.00
8051;BME280;4068;42.158;24.732;2022-12-10T13:34:04;98729.56;;;12.45;100.00
8051;BME280;4068;42.158;24.732;2022-12-10T13:41:41;98722.25;;;12.20;100.00
8051;BME280;4068;42.158;24.732;2022-12-10T13:44:38;98708.88;;;12.12;100.00
8051;BME280;4068;42.158;24.732;2022-12-10T13:49:56;98690.28;;;12.12;100.00
8051;BME280;4068;42.158;24.732;2022-12-10T13:52:26;98655.31;;;11.99;100.00
8051;BME280;4068;42.158;24.732;2022-12-10T14:06:14;98637.88;;;11.60;100.00
8051;BME280;4068;42.158;24.732;2022-12-10T14:08:52;98662.38;;;11.72;100.00
8051;BME280;4068;42.158;24.732;2022-12-10T14:11:23;98648.09;;;11.55;100.00
8051;BME280;4068;42.158;24.732;2022-12-10T14:13:54;98642.88;;;11.63;100.00
8051;BME280;4068;42.158;24.732;2022-12-10T14:16:23;98632.69;;;11.58;100.00
8051;BME280;4068;42.158;24.732;2022-12-10T14:19:01;98611.22;;;11.34;100.00
8051;BME280;4068;42.158;24.732;2022-12-10T14:21:32;98649.13;;;11.44;100.00
8051;BME280;4068;42.158;24.732;2022-12-10T14:23:59;98635.03;;;11.44;100.00
8051;BME280;4068;42.158;24.732;2022-12-10T14:26:30;98628.50;;;11.38;100.00
8051;BME280;4068;42.158;24.732;2022-12-10T14:28:59;98628.44;;;11.30;100.00
8051;BME280;4068;42.158;24.732;2022-12-10T14:31:42;98616.66;;;11.14;100.00
8051;BME280;4068;42.158;24.732;2022-12-10T14:34:14;98626.00;;;11.18;100.00
8051;BME280;4068;42.158;24.732;2022-12-10T14:36:50;98617.66;;;11.13;100.00
8051;BME280;4068;42.158;24.732;2022-12-10T14:41:42;98619.91;;;11.08;100.00
8051;BME280;4068;42.158;24.732;2022-12-10T14:44:11;98621.09;;;10.96;100.00
8051;BME280;4068;42.158;24.732;2022-12-10T14:46:39;98634.81;;;10.91;100.00
8051;BME280;4068;42.158;24.732;2022-12-10T14:49:04;98639.03;;;10.84;100.00
8051;BME280;4068;42.158;24.732;2022-12-10T14:51:33;98630.41;;;10.82;100.00
8051;BME280;4068;42.158;24.732;2022-12-10T14:54:02;98620.81;;;10.71;100.00
8051;BME280;4068;42.158;24.732;2022-12-10T14:56:32;98616.50;;;10.70;100.00
8051;BME280;4068;42.158;24.732;2022-12-10T15:01:30;98612.22;;;10.59;100.00
8051;BME280;4068;42.158;24.732;2022-12-10T15:03:59;98619.47;;;10.57;100.00
8051;BME280;4068;42.158;24.732;2022-12-10T15:06:25;98619.47;;;10.57;100.00
8051;BME280;4068;42.158;24.732;2022-12-10T15:08:54;98607.94;;;10.48;100.00